createdAt,value
2024-03-12T00:00:20.763Z,99.90
2024-03-12T00:04:29.492Z,1.00
2024-03-12T00:08:40.255Z,1.00
2024-03-12T00:12:51.201Z,1.00
2024-03-12T00:17:01.124Z,99.90
2024-03-12T00:21:09.903Z,99.90
2024-03-12T00:25:21.205Z,99.90
2024-03-12T00:29:29.855Z,99.90
2024-03-12T00:33:38.638Z,99.90
2024-03-12T00:37:48.323Z,99.90
2024-03-12T00:41:57.607Z,99.90
2024-03-12T00:46:06.524Z,99.90
2024-03-12T00:50:15.371Z,99.90
2024-03-12T00:54:25.717Z,99.90
2024-03-12T00:58:35.136Z,99.90
2024-03-12T01:02:51.594Z,99.90
2024-03-12T01:07:00.428Z,99.90
2024-03-12T01:11:10.782Z,99.90
2024-03-12T01:15:20.810Z,99.90
2024-03-12T01:19:29.571Z,99.90
2024-03-12T01:23:38.226Z,99.90
2024-03-12T01:27:46.890Z,99.90
2024-03-12T01:31:56.367Z,99.90
2024-03-12T01:36:10.008Z,99.90
2024-03-12T01:40:25.120Z,25.70
2024-03-12T01:44:35.552Z,2.10
2024-03-12T01:48:45.706Z,20.60
2024-03-12T01:52:57.457Z,24.60
2024-03-12T01:57:07.655Z,1.00
2024-03-12T02:01:18.239Z,1.00
2024-03-12T02:05:27.886Z,1.00
2024-03-12T02:09:37.693Z,1.00
2024-03-12T02:13:47.011Z,1.00
2024-03-12T02:17:55.774Z,1.00
2024-03-12T02:22:06.341Z,1.00
2024-03-12T02:26:16.984Z,1.00
2024-03-12T02:30:25.445Z,1.00
2024-03-12T02:34:34.609Z,1.00
2024-03-12T02:38:43.369Z,1.00
2024-03-12T02:42:52.059Z,1.00
2024-03-12T02:47:00.630Z,1.00
2024-03-12T02:51:10.348Z,1.00
2024-03-12T02:55:20.168Z,1.00
2024-03-12T02:59:28.923Z,1.00
2024-03-12T03:03:37.785Z,1.00
2024-03-12T03:07:48.194Z,1.00
2024-03-12T03:11:56.868Z,1.00
2024-03-12T03:16:05.862Z,1.00
2024-03-12T03:20:17.100Z,1.00
2024-03-12T03:24:25.897Z,1.00
2024-03-12T03:28:34.504Z,9.40
2024-03-12T03:32:43.141Z,84.00
2024-03-12T03:37:12.426Z,99.90
2024-03-12T03:41:21.151Z,99.90
2024-03-12T03:45:29.841Z,99.90
2024-03-12T03:49:38.551Z,99.90
2024-03-12T03:53:47.095Z,99.90
2024-03-12T03:57:55.796Z,99.90
2024-03-12T04:02:06.078Z,99.90
2024-03-12T04:06:14.796Z,99.90
2024-03-12T04:10:23.541Z,99.90
2024-03-12T04:14:32.688Z,99.90
2024-03-12T04:18:41.553Z,99.90
2024-03-12T04:22:50.652Z,99.90
2024-03-12T04:26:59.314Z,99.90
2024-03-12T04:31:08.396Z,99.90
2024-03-12T04:35:17.150Z,99.90
2024-03-12T04:39:32.513Z,99.90
2024-03-12T04:43:43.221Z,99.90
2024-03-12T04:47:52.845Z,99.90
2024-03-12T04:52:01.906Z,99.90
2024-03-12T04:56:12.469Z,99.90
2024-03-12T05:00:22.481Z,99.90
2024-03-12T05:04:31.188Z,99.90
2024-03-12T05:08:39.888Z,99.90
2024-03-12T05:12:50.475Z,99.90
2024-03-12T05:17:00.395Z,99.90
2024-03-12T05:21:09.254Z,99.90
2024-03-12T05:25:19.440Z,99.90
2024-03-12T05:29:29.706Z,99.90
2024-03-12T05:33:40.127Z,99.90
2024-03-12T05:37:55.235Z,99.90
2024-03-12T05:42:41.165Z,99.90
2024-03-12T05:47:07.796Z,99.90
2024-03-12T05:51:16.410Z,99.90
2024-03-12T05:55:25.821Z,99.90
2024-03-12T05:59:34.419Z,99.90
2024-03-12T06:03:43.294Z,99.90
2024-03-12T06:07:53.626Z,99.00
2024-03-12T06:12:02.386Z,99.90
2024-03-12T06:16:12.365Z,99.90
2024-03-12T06:20:21.854Z,99.90
2024-03-12T06:24:32.242Z,99.90
2024-03-12T06:28:41.399Z,99.90
2024-03-12T06:32:50.055Z,57.40
2024-03-12T06:37:02.094Z,82.40
2024-03-12T06:41:14.053Z,99.90
2024-03-12T06:45:22.746Z,99.90
2024-03-12T06:49:33.062Z,99.90
2024-03-12T06:53:41.753Z,99.90
2024-03-12T06:57:53.972Z,99.90
2024-03-12T07:02:06.616Z,99.90
2024-03-12T07:06:16.093Z,99.90
2024-03-12T07:10:26.555Z,99.90
2024-03-12T07:14:36.898Z,99.90
2024-03-12T07:18:47.496Z,99.90
2024-03-12T07:22:59.679Z,99.90
2024-03-12T07:27:09.734Z,99.90
2024-03-12T07:31:18.363Z,99.90
2024-03-12T07:35:27.006Z,99.90
2024-03-12T07:39:39.705Z,99.90
2024-03-12T07:43:50.347Z,99.90
2024-03-12T07:47:59.036Z,99.90
2024-03-12T07:52:09.746Z,99.90
2024-03-12T07:56:19.657Z,99.90
2024-03-12T08:00:28.367Z,99.90
2024-03-12T08:04:36.975Z,99.90
2024-03-12T08:08:45.649Z,99.90
2024-03-12T08:12:54.934Z,99.90
2024-03-12T08:17:12.912Z,99.90
2024-03-12T08:21:21.526Z,59.80
2024-03-12T08:25:33.210Z,84.00
2024-03-12T08:29:41.893Z,32.30
2024-03-12T08:33:50.833Z,1.00
2024-03-12T08:37:59.499Z,20.50
2024-03-12T08:42:09.830Z,1.00
2024-03-12T08:46:20.134Z,1.00
2024-03-12T08:50:28.873Z,1.00
2024-03-12T08:54:37.567Z,1.00
2024-03-12T08:58:46.257Z,1.00
2024-03-12T09:02:56.650Z,1.00
2024-03-12T09:07:05.296Z,1.00
2024-03-12T09:11:16.080Z,1.00
2024-03-12T09:15:26.186Z,1.00
2024-03-12T09:19:42.084Z,1.00
2024-03-12T09:23:57.069Z,99.90
2024-03-12T09:28:02.409Z,1.00
2024-03-12T09:32:10.999Z,99.90
2024-03-12T09:36:21.509Z,1.00
2024-03-12T09:40:31.049Z,99.90
2024-03-12T09:44:39.908Z,1.00
2024-03-12T09:48:51.118Z,4.40
2024-03-12T09:53:01.282Z,99.90
2024-03-12T09:57:13.872Z,1.00
2024-03-12T10:01:24.307Z,1.00
2024-03-12T10:05:35.913Z,99.90
2024-03-12T10:09:44.676Z,99.90
2024-03-12T10:13:56.851Z,1.00
2024-03-12T10:18:07.355Z,1.00
2024-03-12T10:22:22.724Z,1.00
2024-03-12T10:26:31.458Z,25.70
2024-03-12T10:30:41.817Z,40.30
2024-03-12T10:34:50.788Z,23.40
2024-03-12T10:38:59.434Z,84.30
2024-03-12T10:43:09.386Z,98.20
2024-03-12T10:47:19.894Z,99.90
2024-03-12T10:51:29.207Z,99.90
2024-03-12T10:55:38.599Z,1.00
2024-03-12T10:59:47.361Z,1.00
2024-03-12T11:03:57.788Z,1.00
2024-03-12T11:08:10.955Z,1.00
2024-03-12T11:12:21.087Z,1.00
2024-03-12T11:16:35.459Z,99.90
2024-03-12T11:20:44.091Z,1.00
2024-03-12T11:24:53.414Z,99.90
2024-03-12T11:29:03.275Z,99.90
2024-03-12T11:33:13.438Z,99.90
2024-03-12T11:37:22.062Z,42.50
2024-03-12T11:41:50.948Z,26.40
2024-03-12T11:46:01.217Z,1.00
2024-03-12T11:50:33.228Z,1.00
2024-03-12T11:54:45.978Z,1.00
2024-03-12T11:59:02.565Z,1.00
2024-03-12T12:03:08.946Z,1.00
2024-03-12T12:07:18.653Z,1.00
2024-03-12T12:11:27.261Z,1.00
2024-03-12T12:15:36.922Z,1.00
2024-03-12T12:19:45.992Z,1.00
2024-03-12T12:23:56.282Z,1.00
2024-03-12T12:28:05.386Z,1.00
2024-03-12T12:32:15.973Z,1.00
2024-03-12T12:36:27.641Z,1.00
2024-03-12T12:40:36.936Z,1.00
2024-03-12T12:44:47.816Z,1.00
2024-03-12T12:48:56.409Z,1.00
2024-03-12T12:53:10.276Z,1.00
2024-03-12T12:57:18.952Z,1.00
2024-03-12T13:01:28.575Z,1.00
2024-03-12T13:05:38.831Z,1.00
2024-03-12T13:09:47.558Z,1.00
2024-03-12T13:13:56.899Z,1.00
2024-03-12T13:18:06.146Z,1.00
2024-03-12T13:22:19.835Z,1.00
2024-03-12T13:26:25.696Z,1.00
2024-03-12T13:30:34.744Z,1.00
2024-03-12T13:34:43.366Z,1.00
2024-03-12T13:38:53.471Z,1.00
2024-03-12T13:43:02.099Z,1.00
2024-03-12T13:47:10.710Z,1.00
2024-03-12T13:51:20.920Z,1.00
2024-03-12T13:55:29.513Z,1.00
2024-03-12T13:59:41.230Z,1.00
2024-03-12T14:03:51.602Z,1.00
2024-03-12T14:08:00.214Z,1.00
2024-03-12T14:12:10.712Z,1.00
2024-03-12T14:16:23.210Z,1.00
2024-03-12T14:20:31.365Z,1.00
2024-03-12T14:24:40.086Z,1.00
2024-03-12T14:28:48.643Z,1.00
2024-03-12T14:32:57.675Z,1.00
2024-03-12T14:37:07.750Z,1.00
2024-03-12T14:41:16.459Z,1.00
2024-03-12T14:45:25.163Z,1.00
2024-03-12T14:49:38.075Z,1.00
2024-03-12T14:53:44.027Z,1.00
2024-03-12T14:57:53.930Z,1.00
2024-03-12T15:02:04.258Z,1.00
2024-03-12T15:06:13.831Z,1.00
2024-03-12T15:10:22.575Z,1.00
2024-03-12T15:14:31.801Z,1.00
2024-03-12T15:18:41.274Z,1.00
2024-03-12T15:22:51.477Z,1.00
2024-03-12T15:27:00.687Z,1.00
2024-03-12T15:31:09.408Z,1.00
2024-03-12T15:35:17.970Z,1.00
2024-03-12T15:39:26.587Z,1.00
2024-03-12T15:43:35.541Z,1.00
2024-03-12T15:47:45.284Z,1.00
2024-03-12T15:51:54.894Z,1.00
2024-03-12T15:56:03.499Z,1.00
2024-03-12T16:00:15.033Z,1.00
2024-03-12T16:04:25.779Z,1.00
2024-03-12T16:08:34.974Z,1.00
2024-03-12T16:12:46.284Z,1.00
2024-03-12T16:16:54.630Z,1.00
2024-03-12T16:21:04.363Z,1.00
2024-03-12T16:25:14.363Z,1.00
2024-03-12T16:29:26.877Z,1.00
2024-03-12T16:33:36.223Z,1.00
2024-03-12T16:37:47.511Z,1.00
2024-03-12T16:41:58.876Z,1.00
2024-03-12T16:46:07.507Z,1.00
2024-03-12T16:50:16.679Z,1.00
2024-03-12T16:54:27.076Z,1.00
2024-03-12T16:58:36.016Z,1.00
2024-03-12T17:02:45.086Z,1.00
2024-03-12T17:07:02.130Z,1.00
2024-03-12T17:11:10.992Z,1.00
2024-03-12T17:15:21.574Z,1.00
2024-03-12T17:19:31.181Z,1.00
2024-03-12T17:23:40.107Z,1.00
2024-03-12T17:27:50.019Z,1.00
2024-03-12T17:31:59.514Z,1.00
2024-03-12T17:36:10.565Z,1.00
2024-03-12T17:40:20.042Z,1.00
2024-03-12T17:44:29.871Z,1.00
2024-03-12T17:48:40.450Z,1.00
2024-03-12T17:52:54.531Z,1.00
2024-03-12T17:57:04.968Z,1.00
2024-03-12T18:01:13.749Z,1.00
2024-03-12T18:05:23.064Z,1.00
2024-03-12T18:09:35.373Z,1.00
2024-03-12T18:13:44.127Z,1.00
2024-03-12T18:17:53.206Z,1.00
2024-03-12T18:22:01.983Z,1.00
2024-03-12T18:26:10.599Z,1.00
2024-03-12T18:30:19.677Z,1.00
2024-03-12T18:34:28.402Z,1.00
2024-03-12T18:38:38.321Z,1.00
2024-03-12T18:42:47.583Z,1.00
2024-03-12T18:46:57.036Z,1.00
2024-03-12T18:51:06.337Z,1.00
2024-03-12T18:55:20.002Z,1.00
2024-03-12T18:59:28.836Z,1.00
2024-03-12T19:03:46.487Z,1.00
2024-03-12T19:07:56.280Z,1.00
2024-03-12T19:12:07.160Z,1.00
2024-03-12T19:16:19.725Z,1.00
2024-03-12T19:20:28.572Z,1.00
2024-03-12T19:24:37.268Z,1.00
2024-03-12T19:28:46.490Z,1.00
2024-03-12T19:32:58.981Z,1.00
2024-03-12T19:37:08.321Z,1.00
2024-03-12T19:41:18.011Z,1.00
2024-03-12T19:45:29.617Z,1.00
2024-03-12T19:49:40.670Z,1.00
2024-03-12T19:53:51.252Z,1.00
2024-03-12T19:58:05.256Z,1.00
2024-03-12T20:02:14.784Z,1.00
2024-03-12T20:06:23.563Z,1.00
2024-03-12T20:10:33.322Z,1.00
2024-03-12T20:14:42.686Z,1.00
2024-03-12T20:18:52.344Z,1.00
2024-03-12T20:23:00.939Z,1.00
2024-03-12T20:27:09.523Z,1.00
2024-03-12T20:31:19.616Z,1.00
2024-03-12T20:35:30.288Z,1.00
2024-03-12T20:39:39.587Z,1.00
2024-03-12T20:43:48.790Z,1.00
2024-03-12T20:47:57.447Z,1.00
2024-03-12T20:52:08.061Z,1.00
2024-03-12T20:56:16.723Z,1.00
2024-03-12T21:00:26.909Z,1.00
2024-03-12T21:04:36.384Z,1.00
2024-03-12T21:08:47.078Z,7.50
2024-03-12T21:12:59.975Z,19.60
2024-03-12T21:17:08.654Z,40.00
2024-03-12T21:21:17.546Z,35.40
2024-03-12T21:25:26.398Z,63.10
2024-03-12T21:29:35.037Z,80.20
2024-03-12T21:33:56.220Z,90.70
2024-03-12T21:38:05.289Z,95.10
2024-03-12T21:42:15.545Z,67.40
2024-03-12T21:46:24.224Z,95.00
2024-03-12T21:50:33.431Z,99.90
2024-03-12T21:54:42.118Z,99.90
2024-03-12T21:58:52.397Z,91.10
2024-03-12T22:03:02.533Z,92.60
2024-03-12T22:07:13.158Z,99.90
2024-03-12T22:11:21.833Z,99.90
2024-03-12T22:15:30.559Z,99.90
2024-03-12T22:19:40.024Z,99.90
2024-03-12T22:23:49.473Z,99.90
2024-03-12T22:27:58.113Z,99.90
2024-03-12T22:32:08.592Z,99.90
2024-03-12T22:36:17.576Z,99.90
2024-03-12T22:40:26.500Z,99.90
2024-03-12T22:44:36.875Z,99.90
2024-03-12T22:48:46.207Z,99.90
2024-03-12T22:53:17.298Z,99.90
2024-03-12T22:57:27.825Z,99.90
2024-03-12T23:01:40.847Z,99.90
2024-03-12T23:05:50.030Z,99.90
2024-03-12T23:09:58.887Z,99.90
2024-03-12T23:14:08.448Z,99.90
2024-03-12T23:18:17.482Z,99.90
2024-03-12T23:22:27.683Z,99.90
2024-03-12T23:26:36.287Z,99.90
2024-03-12T23:30:44.981Z,99.90
2024-03-12T23:34:53.579Z,99.90
2024-03-12T23:39:02.203Z,99.90
2024-03-12T23:43:12.164Z,99.90
2024-03-12T23:47:20.754Z,99.90
2024-03-12T23:51:31.060Z,99.90
2024-03-12T23:55:40.476Z,99.90
2024-03-12T23:59:49.736Z,1.00
